Weather at Metropolitan Oakland International Airport

Public forecast

Using degrees Fahrenheit for public forecast. Weather courtesy of forecast.io.

Current aviation weather report (METAR) for Metropolitan Oakland International Airport

2023/02/04 08:53 (retrieved 13 minutes ago)

KOAK 040853Z 15004KT 6SM BR BKN026 10/08 A3020 RMK AO2 SLP225 T01000083 57008

Aviation forecast (TAF) for Metropolitan Oakland International Airport

2023/02/04 07:36 Ammendment (retrieved 2 hours ago)

TAF AMD KOAK 040633Z 0407/0512 VRB04KT 6SM BR SCT025 BKN050 FM041500 12007KT P6SM BKN025 FM042100 17011KT P6SM VCSH SCT015 BKN025 FM050000 17015KT 5SM -RA SCT015 OVC020 WS015/22045KT FM050700 22016KT P6SM BKN025